createdAt,value
2019-04-01T00:02:18.783Z,95617.00
2019-04-01T00:04:49.184Z,95614.00
2019-04-01T00:07:19.660Z,95607.00
2019-04-01T00:09:50.097Z,95613.00
2019-04-01T00:12:20.555Z,95613.00
2019-04-01T00:14:50.985Z,95618.00
2019-04-01T00:17:21.628Z,95607.00
2019-04-01T00:19:52.053Z,95605.00
2019-04-01T00:22:22.555Z,95611.00
2019-04-01T00:24:53.005Z,95609.00
2019-04-01T00:27:23.540Z,95607.00
2019-04-01T00:29:54.152Z,95606.00
2019-04-01T00:32:27.660Z,95612.00
2019-04-01T00:34:58.058Z,95599.00
2019-04-01T00:37:28.512Z,95602.00
2019-04-01T00:39:58.913Z,95601.00
2019-04-01T00:42:49.474Z,95601.00
2019-04-01T00:45:20.721Z,95597.00
2019-04-01T00:47:51.147Z,95593.00
2019-04-01T00:50:21.661Z,95592.00
2019-04-01T00:52:52.061Z,95600.00
2019-04-01T00:55:24.776Z,95604.00
2019-04-01T00:57:55.295Z,95596.00
2019-04-01T01:00:25.720Z,95588.00
2019-04-01T01:02:56.259Z,95595.00
2019-04-01T01:05:26.715Z,95593.00
2019-04-01T01:07:57.146Z,95584.00
2019-04-01T01:10:29.057Z,95585.00
2019-04-01T01:12:59.509Z,95587.00
2019-04-01T01:15:29.977Z,95585.00
2019-04-01T01:18:00.414Z,95584.00
2019-04-01T01:20:32.145Z,95592.00
2019-04-01T01:23:02.663Z,95592.00
2019-04-01T01:25:33.182Z,95594.00
2019-04-01T01:28:03.749Z,95588.00
2019-04-01T01:30:34.163Z,95590.00
2019-04-01T01:33:04.734Z,95594.00
2019-04-01T01:35:35.603Z,95585.00
2019-04-01T01:38:06.083Z,95596.00
2019-04-01T01:40:36.486Z,95586.00
2019-04-01T01:43:07.112Z,95582.00
2019-04-01T01:45:37.514Z,95583.00
2019-04-01T01:48:07.924Z,95584.00
2019-04-01T01:50:38.329Z,95575.00
2019-04-01T01:53:08.738Z,95590.00
2019-04-01T01:55:39.165Z,95580.00
2019-04-01T01:58:09.558Z,95587.00
2019-04-01T02:00:41.916Z,95584.00
2019-04-01T02:03:12.350Z,95587.00
2019-04-01T02:05:42.892Z,95586.00
2019-04-01T02:08:13.703Z,95590.00
2019-04-01T02:10:45.028Z,95587.00
2019-04-01T02:13:15.843Z,95593.00
2019-04-01T02:15:46.218Z,95589.00
2019-04-01T02:18:16.622Z,95588.00
2019-04-01T02:20:47.400Z,95580.00
2019-04-01T02:23:18.101Z,95596.00
2019-04-01T02:25:48.520Z,95588.00
2019-04-01T02:28:18.938Z,95585.00
2019-04-01T02:30:49.349Z,95592.00
2019-04-01T02:33:19.774Z,95594.00
2019-04-01T02:35:50.182Z,95588.00
2019-04-01T02:38:20.658Z,95588.00
2019-04-01T02:40:51.078Z,95582.00
2019-04-01T02:43:24.669Z,95584.00
2019-04-01T02:45:55.252Z,95581.00
2019-04-01T02:48:25.856Z,95587.00
2019-04-01T02:50:56.312Z,95584.00
2019-04-01T02:53:26.716Z,95581.00
2019-04-01T02:55:57.247Z,95576.00
2019-04-01T02:58:27.657Z,95579.00
2019-04-01T03:00:58.100Z,95579.00
2019-04-01T03:03:28.504Z,95577.00
2019-04-01T03:05:58.941Z,95580.00
2019-04-01T03:08:29.383Z,95578.00
2019-04-01T03:10:59.890Z,95570.00
2019-04-01T03:13:30.642Z,95572.00
2019-04-01T03:16:02.090Z,95585.00
2019-04-01T03:18:34.748Z,95577.00
2019-04-01T03:21:05.143Z,95574.00
2019-04-01T03:23:35.922Z,95573.00
2019-04-01T03:26:06.409Z,95573.00
2019-04-01T03:28:36.866Z,95572.00
2019-04-01T03:31:07.255Z,95574.00
2019-04-01T03:33:37.716Z,95577.00
2019-04-01T03:36:08.197Z,95570.00
2019-04-01T03:38:38.598Z,95575.00
2019-04-01T03:41:09.053Z,95568.00
2019-04-01T03:43:39.466Z,95574.00
2019-04-01T03:46:09.906Z,95571.00
2019-04-01T03:48:40.325Z,95576.00
2019-04-01T03:51:10.791Z,95571.00
2019-04-01T03:53:41.228Z,95573.00
2019-04-01T03:56:11.761Z,95572.00
2019-04-01T03:58:42.257Z,95574.00
2019-04-01T04:01:12.761Z,95566.00
2019-04-01T04:03:43.240Z,95571.00
2019-04-01T04:06:13.810Z,95563.00
2019-04-01T04:08:44.218Z,95571.00
2019-04-01T04:11:14.728Z,95582.00
2019-04-01T04:13:45.181Z,95578.00
2019-04-01T04:16:18.013Z,95577.00
2019-04-01T04:18:48.456Z,95579.00
2019-04-01T04:21:23.495Z,95576.00
2019-04-01T04:23:51.025Z,95579.00
2019-04-01T04:26:21.477Z,95582.00
2019-04-01T04:28:52.003Z,95578.00
2019-04-01T04:31:22.397Z,95585.00
2019-04-01T04:33:52.937Z,95586.00
2019-04-01T04:36:23.360Z,95579.00
2019-04-01T04:38:54.239Z,95577.00
2019-04-01T04:41:24.811Z,95583.00
2019-04-01T04:43:55.210Z,95576.00
2019-04-01T04:46:27.962Z,95578.00
2019-04-01T04:48:58.387Z,95581.00
2019-04-01T04:51:28.837Z,95582.00
2019-04-01T04:53:59.263Z,95589.00
2019-04-01T04:56:29.686Z,95579.00
2019-04-01T04:59:00.163Z,95575.00
2019-04-01T05:01:31.806Z,95579.00
2019-04-01T05:04:02.233Z,95573.00
2019-04-01T05:06:32.725Z,95579.00
2019-04-01T05:09:04.830Z,95580.00
2019-04-01T05:11:35.287Z,95582.00
2019-04-01T05:14:05.836Z,95578.00
2019-04-01T05:16:36.539Z,95578.00
2019-04-01T05:19:07.299Z,95579.00
2019-04-01T05:21:38.556Z,95582.00
2019-04-01T05:24:09.093Z,95574.00
2019-04-01T05:26:42.103Z,95574.00
2019-04-01T05:29:15.135Z,95581.00
2019-04-01T05:31:48.525Z,95577.00
2019-04-01T05:34:22.714Z,95587.00
2019-04-01T05:36:53.348Z,95582.00
2019-04-01T05:39:24.452Z,95580.00
2019-04-01T05:41:55.109Z,95586.00
2019-04-01T05:44:25.599Z,95583.00
2019-04-01T05:46:56.022Z,95587.00
2019-04-01T05:49:26.980Z,95585.00
2019-04-01T05:51:57.630Z,95586.00
2019-04-01T05:54:28.063Z,95592.00
2019-04-01T05:56:59.013Z,95589.00
2019-04-01T05:59:29.388Z,95590.00
2019-04-01T06:01:59.828Z,95589.00
2019-04-01T06:04:30.570Z,95583.00
2019-04-01T06:07:01.094Z,95590.00
2019-04-01T06:09:32.134Z,95598.00
2019-04-01T06:12:02.986Z,95588.00
2019-04-01T06:14:34.334Z,95584.00
2019-04-01T06:17:04.963Z,95585.00
2019-04-01T06:19:35.572Z,95592.00
2019-04-01T06:22:06.137Z,95597.00
2019-04-01T06:24:36.578Z,95598.00
2019-04-01T06:27:07.034Z,95600.00
2019-04-01T06:29:37.479Z,95590.00
2019-04-01T06:32:07.926Z,95595.00
2019-04-01T06:34:52.041Z,95598.00
2019-04-01T06:37:10.550Z,95601.00
2019-04-01T06:39:41.035Z,95599.00
2019-04-01T06:42:12.960Z,95594.00
2019-04-01T06:44:44.520Z,95584.00
2019-04-01T06:47:15.312Z,95591.00
2019-04-01T06:49:45.838Z,95601.00
2019-04-01T06:52:16.303Z,95588.00
2019-04-01T06:54:47.083Z,95583.00
2019-04-01T06:57:17.588Z,95585.00
2019-04-01T06:59:48.078Z,95584.00
2019-04-01T07:02:18.547Z,95589.00
2019-04-01T07:04:49.303Z,95593.00
2019-04-01T07:07:19.985Z,95599.00
2019-04-01T07:09:50.945Z,95583.00
2019-04-01T07:12:21.758Z,95584.00
2019-04-01T07:14:52.378Z,95577.00
2019-04-01T07:17:23.234Z,95581.00
2019-04-01T07:19:55.934Z,95584.00
2019-04-01T07:22:26.674Z,95584.00
2019-04-01T07:24:57.118Z,95577.00
2019-04-01T07:27:27.567Z,95591.00
2019-04-01T07:29:58.029Z,95582.00
2019-04-01T07:32:28.553Z,95581.00
2019-04-01T07:34:58.979Z,95577.00
2019-04-01T07:37:29.447Z,95588.00
2019-04-01T07:39:59.904Z,95583.00
2019-04-01T07:42:30.578Z,95584.00
2019-04-01T07:45:01.052Z,95587.00
2019-04-01T07:47:31.495Z,95582.00
2019-04-01T07:50:02.242Z,95585.00
2019-04-01T07:52:33.479Z,95584.00
2019-04-01T07:55:04.206Z,95579.00
2019-04-01T07:57:34.634Z,95581.00
2019-04-01T08:00:05.884Z,95578.00
2019-04-01T08:02:36.866Z,95571.00
2019-04-01T08:05:07.945Z,95577.00
2019-04-01T08:07:38.380Z,95592.00
2019-04-01T08:10:10.031Z,95577.00
2019-04-01T08:12:40.856Z,95579.00
2019-04-01T08:15:12.975Z,95580.00
2019-04-01T08:17:43.457Z,95568.00
2019-04-01T08:20:14.967Z,95587.00
2019-04-01T08:22:45.660Z,95581.00
2019-04-01T08:25:16.400Z,95584.00
2019-04-01T08:27:47.151Z,95581.00
2019-04-01T08:30:17.975Z,95586.00
2019-04-01T08:32:48.456Z,95588.00
2019-04-01T08:35:18.898Z,95595.00
2019-04-01T08:37:49.518Z,95594.00
2019-04-01T08:40:19.989Z,95584.00
2019-04-01T08:42:51.004Z,95589.00
2019-04-01T08:45:21.471Z,95588.00
2019-04-01T08:47:53.190Z,95593.00
2019-04-01T08:50:24.231Z,95590.00
2019-04-01T08:52:54.768Z,95591.00
2019-04-01T08:55:25.442Z,95585.00
2019-04-01T08:57:56.282Z,95577.00
2019-04-01T09:00:28.755Z,95570.00
2019-04-01T09:03:01.662Z,95579.00
2019-04-01T09:05:32.293Z,95565.00
2019-04-01T09:08:02.895Z,95572.00
2019-04-01T09:10:33.489Z,95579.00
2019-04-01T09:13:04.189Z,95578.00
2019-04-01T09:15:35.752Z,95563.00
2019-04-01T09:18:06.298Z,95562.00
2019-04-01T09:20:36.785Z,95563.00
2019-04-01T09:23:07.273Z,95567.00
2019-04-01T09:25:37.735Z,95560.00
2019-04-01T09:28:08.382Z,95561.00
2019-04-01T09:30:39.000Z,95555.00
2019-04-01T09:33:09.483Z,95561.00
2019-04-01T09:35:41.096Z,95554.00
2019-04-01T09:38:11.687Z,95552.00
2019-04-01T09:40:42.117Z,95560.00
2019-04-01T09:43:14.286Z,95549.00
2019-04-01T09:45:45.042Z,95556.00
2019-04-01T09:48:15.539Z,95544.00
2019-04-01T09:50:46.005Z,95551.00
2019-04-01T09:53:16.457Z,95547.00
2019-04-01T09:55:46.894Z,95552.00
2019-04-01T09:58:17.697Z,95551.00
2019-04-01T10:00:53.255Z,95546.00
2019-04-01T10:03:22.789Z,95536.00
2019-04-01T10:05:54.909Z,95543.00
2019-04-01T10:08:25.511Z,95549.00
2019-04-01T10:10:56.087Z,95539.00
2019-04-01T10:13:31.279Z,95542.00
2019-04-01T10:16:04.621Z,95547.00
2019-04-01T10:18:35.091Z,95542.00
2019-04-01T10:21:05.942Z,95530.00
2019-04-01T10:23:36.525Z,95526.00
2019-04-01T10:26:07.408Z,95522.00
2019-04-01T10:28:39.328Z,95533.00
2019-04-01T10:31:09.774Z,95533.00
2019-04-01T10:33:41.441Z,95525.00
2019-04-01T10:36:11.976Z,95525.00
2019-04-01T10:38:42.550Z,95519.00
2019-04-01T10:41:13.162Z,95524.00
2019-04-01T10:43:45.475Z,95524.00
2019-04-01T10:46:17.265Z,95523.00
2019-04-01T10:48:47.974Z,95519.00
2019-04-01T10:51:18.797Z,95521.00
2019-04-01T10:53:50.484Z,95517.00
2019-04-01T10:56:20.989Z,95514.00
2019-04-01T10:58:52.751Z,95514.00
2019-04-01T11:01:24.680Z,95513.00
2019-04-01T11:03:55.224Z,95504.00
2019-04-01T11:06:26.049Z,95496.00
2019-04-01T11:08:57.993Z,95503.00
2019-04-01T11:11:29.982Z,95493.00
2019-04-01T11:14:00.539Z,95497.00
2019-04-01T11:16:34.274Z,95488.00
2019-04-01T11:19:04.792Z,95491.00
2019-04-01T11:21:35.804Z,95482.00
2019-04-01T11:24:10.629Z,95490.00
2019-04-01T11:26:41.246Z,95488.00
2019-04-01T11:29:12.252Z,95492.00
2019-04-01T11:31:44.385Z,95489.00
2019-04-01T11:34:15.097Z,95483.00
2019-04-01T11:36:46.084Z,95475.00
2019-04-01T11:39:18.167Z,95481.00
2019-04-01T11:41:50.045Z,95471.00
2019-04-01T11:44:22.267Z,95473.00
2019-04-01T11:46:53.843Z,95467.00
2019-04-01T11:49:24.460Z,95477.00
2019-04-01T11:51:55.038Z,95463.00
2019-04-01T11:54:25.637Z,95464.00
2019-04-01T11:56:58.116Z,95464.00
2019-04-01T11:59:28.624Z,95458.00
2019-04-01T12:01:59.380Z,95442.00
2019-04-01T12:04:29.812Z,95453.00
2019-04-01T12:07:02.029Z,95439.00
2019-04-01T12:09:32.447Z,95446.00
2019-04-01T12:12:04.040Z,95431.00
2019-04-01T12:14:34.654Z,95432.00
2019-04-01T12:17:05.083Z,95434.00
2019-04-01T12:19:35.617Z,95429.00
2019-04-01T12:22:06.022Z,95428.00
2019-04-01T12:24:36.991Z,95425.00
2019-04-01T12:27:10.162Z,95422.00
2019-04-01T12:29:41.039Z,95421.00
2019-04-01T12:32:11.676Z,95415.00
2019-04-01T12:34:43.650Z,95402.00
2019-04-01T12:37:14.238Z,95407.00
2019-04-01T12:39:44.743Z,95410.00
2019-04-01T12:42:16.016Z,95411.00
2019-04-01T12:44:47.225Z,95407.00
2019-04-01T12:47:17.761Z,95401.00
2019-04-01T12:49:48.215Z,95397.00
2019-04-01T12:52:18.639Z,95401.00
2019-04-01T12:54:49.107Z,95400.00
2019-04-01T12:57:20.965Z,95389.00
2019-04-01T12:59:54.365Z,95390.00
2019-04-01T13:02:24.998Z,95387.00
2019-04-01T13:04:55.460Z,95382.00
2019-04-01T13:07:25.907Z,95384.00
2019-04-01T13:09:56.353Z,95385.00
2019-04-01T13:12:27.598Z,95383.00
2019-04-01T13:14:58.396Z,95380.00
2019-04-01T13:17:28.908Z,95373.00
2019-04-01T13:19:59.351Z,95379.00
2019-04-01T13:22:29.819Z,95372.00
2019-04-01T13:25:01.017Z,95363.00
2019-04-01T13:27:32.341Z,95366.00
2019-04-01T13:30:02.792Z,95374.00
2019-04-01T13:32:33.335Z,95369.00
2019-04-01T13:35:04.107Z,95359.00
2019-04-01T13:37:34.829Z,95364.00
2019-04-01T13:40:05.635Z,95357.00
2019-04-01T13:42:36.087Z,95362.00
2019-04-01T13:45:06.823Z,95354.00
2019-04-01T13:47:37.222Z,95352.00
2019-04-01T13:50:08.964Z,95342.00
2019-04-01T13:52:39.406Z,95353.00
2019-04-01T13:55:10.973Z,95350.00
2019-04-01T13:57:42.011Z,95343.00
2019-04-01T14:00:15.057Z,95342.00
2019-04-01T14:02:45.752Z,95337.00
2019-04-01T14:05:16.815Z,95332.00
2019-04-01T14:07:48.066Z,95332.00
2019-04-01T14:10:18.818Z,95330.00
2019-04-01T14:12:49.546Z,95329.00
2019-04-01T14:15:20.014Z,95316.00
2019-04-01T14:17:50.464Z,95313.00
2019-04-01T14:20:20.933Z,95322.00
2019-04-01T14:22:53.572Z,95319.00
2019-04-01T14:25:25.916Z,95318.00
2019-04-01T14:28:02.612Z,95325.00
2019-04-01T14:30:34.230Z,95320.00
2019-04-01T14:33:17.189Z,95313.00
2019-04-01T14:35:49.507Z,95316.00
2019-04-01T14:38:19.950Z,95317.00
2019-04-01T14:40:53.831Z,95308.00
2019-04-01T14:43:24.377Z,95305.00
2019-04-01T14:45:55.167Z,95306.00
2019-04-01T14:48:25.656Z,95306.00
2019-04-01T14:50:56.136Z,95306.00
2019-04-01T14:53:26.673Z,95297.00
2019-04-01T14:55:57.140Z,95293.00
2019-04-01T14:58:27.618Z,95300.00
2019-04-01T15:00:58.183Z,95292.00
2019-04-01T15:03:28.653Z,95305.00
2019-04-01T15:05:59.117Z,95289.00
2019-04-01T15:08:29.562Z,95284.00
2019-04-01T15:11:00.056Z,95286.00
2019-04-01T15:13:30.515Z,95287.00
2019-04-01T15:16:01.146Z,95283.00
2019-04-01T15:18:34.321Z,95274.00
2019-04-01T15:21:04.060Z,95268.00
2019-04-01T15:23:34.505Z,95276.00
2019-04-01T15:26:05.067Z,95270.00
2019-04-01T15:28:35.606Z,95277.00
2019-04-01T15:31:06.593Z,95274.00
2019-04-01T15:33:38.215Z,95271.00
2019-04-01T15:36:08.711Z,95271.00
2019-04-01T15:38:39.199Z,95272.00
2019-04-01T15:41:09.652Z,95282.00
2019-04-01T15:43:41.015Z,95268.00
2019-04-01T15:46:11.792Z,95281.00
2019-04-01T15:48:42.482Z,95270.00
2019-04-01T15:51:12.917Z,95261.00
2019-04-01T15:53:44.230Z,95260.00
2019-04-01T15:56:14.804Z,95266.00
2019-04-01T15:58:45.310Z,95269.00
2019-04-01T16:01:15.804Z,95267.00
2019-04-01T16:03:46.276Z,95263.00
2019-04-01T16:06:16.885Z,95254.00
2019-04-01T16:08:47.413Z,95267.00
2019-04-01T16:11:18.154Z,95264.00
2019-04-01T16:13:49.372Z,95264.00
2019-04-01T16:16:19.837Z,95269.00
2019-04-01T16:18:50.349Z,95271.00
2019-04-01T16:21:20.818Z,95267.00
2019-04-01T16:23:51.445Z,95278.00
2019-04-01T16:26:21.947Z,95278.00
2019-04-01T16:28:52.448Z,95265.00
2019-04-01T16:31:23.119Z,95278.00
2019-04-01T16:33:55.173Z,95272.00
2019-04-01T16:36:28.895Z,95282.00
2019-04-01T16:38:59.388Z,95281.00
2019-04-01T16:41:30.969Z,95275.00
2019-04-01T16:44:01.879Z,95269.00
2019-04-01T16:46:32.383Z,95272.00
2019-04-01T16:49:03.066Z,95269.00
2019-04-01T16:51:33.714Z,95272.00
2019-04-01T16:54:05.772Z,95269.00
2019-04-01T16:56:36.225Z,95265.00
2019-04-01T16:59:06.729Z,95264.00
2019-04-01T17:01:37.269Z,95265.00
2019-04-01T17:04:09.190Z,95270.00
2019-04-01T17:06:39.647Z,95261.00
2019-04-01T17:09:15.379Z,95263.00
2019-04-01T17:11:46.005Z,95277.00
2019-04-01T17:14:17.565Z,95269.00
2019-04-01T17:16:48.090Z,95270.00
2019-04-01T17:19:19.037Z,95277.00
2019-04-01T17:21:49.545Z,95274.00
2019-04-01T17:24:20.092Z,95271.00
2019-04-01T17:27:12.100Z,95276.00
2019-04-01T17:29:45.621Z,95278.00
2019-04-01T17:32:18.539Z,95275.00
2019-04-01T17:34:49.001Z,95278.00
2019-04-01T17:37:19.897Z,95278.00
2019-04-01T17:39:54.437Z,95278.00
2019-04-01T17:42:25.092Z,95281.00
2019-04-01T17:44:59.282Z,95280.00
2019-04-01T17:47:29.754Z,95281.00
2019-04-01T17:50:00.594Z,95278.00
2019-04-01T17:52:31.096Z,95278.00
2019-04-01T17:55:10.659Z,95280.00
2019-04-01T17:57:41.557Z,95284.00
2019-04-01T18:00:29.234Z,95284.00
2019-04-01T18:03:01.740Z,95279.00
2019-04-01T18:05:55.024Z,95296.00
2019-04-01T18:08:25.734Z,95293.00
2019-04-01T18:10:57.417Z,95293.00
2019-04-01T18:13:29.657Z,95293.00
2019-04-01T18:16:11.035Z,95285.00
2019-04-01T18:18:44.583Z,95278.00
2019-04-01T18:21:18.169Z,95295.00
2019-04-01T18:23:50.763Z,95293.00
2019-04-01T18:26:21.451Z,95293.00
2019-04-01T18:28:52.451Z,95290.00
2019-04-01T18:31:26.742Z,95301.00
2019-04-01T18:34:04.550Z,95300.00
2019-04-01T18:36:35.694Z,95306.00
2019-04-01T18:39:09.858Z,95296.00
2019-04-01T18:41:41.724Z,95296.00
2019-04-01T18:44:18.715Z,95300.00
2019-04-01T18:46:50.616Z,95302.00
2019-04-01T18:49:21.199Z,95311.00
2019-04-01T18:51:52.177Z,95309.00
2019-04-01T18:54:29.411Z,95310.00
2019-04-01T18:57:11.333Z,95315.00
2019-04-01T18:59:44.477Z,95309.00
2019-04-01T19:02:22.506Z,95314.00
2019-04-01T19:05:14.769Z,95310.00
2019-04-01T19:08:07.310Z,95317.00
2019-04-01T19:11:05.066Z,95314.00
2019-04-01T19:13:36.555Z,95307.00
2019-04-01T19:16:17.503Z,95313.00
2019-04-01T19:18:48.254Z,95308.00
2019-04-01T19:21:18.725Z,95320.00
2019-04-01T19:23:49.335Z,95318.00
2019-04-01T19:26:19.849Z,95314.00
2019-04-01T19:28:50.381Z,95326.00
2019-04-01T19:31:20.936Z,95315.00
2019-04-01T19:33:51.516Z,95314.00
2019-04-01T19:36:23.019Z,95320.00
2019-04-01T19:38:54.764Z,95323.00
2019-04-01T19:41:27.372Z,95318.00
2019-04-01T19:43:59.049Z,95320.00
2019-04-01T19:46:30.175Z,95316.00
2019-04-01T19:49:04.746Z,95312.00
2019-04-01T19:51:36.006Z,95318.00
2019-04-01T19:54:07.919Z,95317.00
2019-04-01T19:56:39.695Z,95324.00
2019-04-01T19:59:11.812Z,95316.00
2019-04-01T20:01:42.895Z,95315.00
2019-04-01T20:04:16.920Z,95317.00
2019-04-01T20:06:50.202Z,95317.00
2019-04-01T20:09:21.768Z,95315.00
2019-04-01T20:11:58.236Z,95310.00
2019-04-01T20:14:27.497Z,95308.00
2019-04-01T20:17:02.021Z,95315.00
2019-04-01T20:19:33.189Z,95319.00
2019-04-01T20:22:04.684Z,95307.00
2019-04-01T20:24:35.488Z,95313.00
2019-04-01T20:27:08.807Z,95315.00
2019-04-01T20:29:41.508Z,95313.00
2019-04-01T20:32:17.434Z,95315.00
2019-04-01T20:34:56.467Z,95311.00
2019-04-01T20:37:16.585Z,95312.00
2019-04-01T20:39:47.155Z,95307.00
2019-04-01T20:42:18.683Z,95306.00
2019-04-01T20:44:49.203Z,95309.00
2019-04-01T20:47:19.725Z,95319.00
2019-04-01T20:49:53.306Z,95320.00
2019-04-01T20:52:23.963Z,95311.00
2019-04-01T20:54:54.496Z,95309.00
2019-04-01T20:57:26.435Z,95309.00
2019-04-01T20:59:58.395Z,95313.00
2019-04-01T21:02:28.874Z,95307.00
2019-04-01T21:05:00.414Z,95303.00
2019-04-01T21:07:31.069Z,95308.00
2019-04-01T21:10:01.684Z,95295.00
2019-04-01T21:12:32.150Z,95306.00
2019-04-01T21:15:02.684Z,95307.00
2019-04-01T21:17:33.205Z,95305.00
2019-04-01T21:20:04.888Z,95296.00
2019-04-01T21:22:36.683Z,95294.00
2019-04-01T21:25:07.835Z,95299.00
2019-04-01T21:27:39.181Z,95292.00
2019-04-01T21:30:11.509Z,95295.00
2019-04-01T21:32:41.958Z,95299.00
2019-04-01T21:35:12.860Z,95293.00
2019-04-01T21:37:43.439Z,95290.00
2019-04-01T21:40:14.344Z,95290.00
2019-04-01T21:42:44.776Z,95286.00
2019-04-01T21:45:16.301Z,95293.00
2019-04-01T21:47:47.436Z,95283.00
2019-04-01T21:50:18.280Z,95280.00
2019-04-01T21:52:48.738Z,95281.00
2019-04-01T21:55:19.228Z,95277.00
2019-04-01T21:57:51.134Z,95279.00
2019-04-01T22:00:39.978Z,95284.00
2019-04-01T22:03:10.487Z,95274.00
2019-04-01T22:05:40.939Z,95270.00
2019-04-01T22:08:13.703Z,95275.00
2019-04-01T22:10:44.081Z,95258.00
2019-04-01T22:13:14.811Z,95259.00
2019-04-01T22:15:45.289Z,95261.00
2019-04-01T22:18:15.722Z,95262.00
2019-04-01T22:20:46.247Z,95256.00
2019-04-01T22:23:16.735Z,95260.00
2019-04-01T22:25:49.664Z,95256.00
2019-04-01T22:28:20.083Z,95255.00
2019-04-01T22:30:50.548Z,95256.00
2019-04-01T22:33:20.967Z,95257.00
2019-04-01T22:35:51.449Z,95254.00
2019-04-01T22:38:25.352Z,95257.00
2019-04-01T22:40:56.123Z,95246.00
2019-04-01T22:43:26.599Z,95252.00
2019-04-01T22:45:58.541Z,95238.00
2019-04-01T22:48:29.001Z,95238.00
2019-04-01T22:50:59.466Z,95244.00
2019-04-01T22:53:30.291Z,95234.00
2019-04-01T22:56:00.785Z,95242.00
2019-04-01T22:58:31.192Z,95239.00
2019-04-01T23:01:01.716Z,95235.00
2019-04-01T23:03:32.143Z,95238.00
2019-04-01T23:06:02.626Z,95235.00
2019-04-01T23:08:32.979Z,95232.00
2019-04-01T23:11:03.624Z,95230.00
2019-04-01T23:13:34.038Z,95222.00
2019-04-01T23:16:07.313Z,95209.00
2019-04-01T23:18:37.779Z,95216.00
2019-04-01T23:21:08.206Z,95217.00
2019-04-01T23:23:38.721Z,95205.00
2019-04-01T23:26:09.151Z,95210.00
2019-04-01T23:28:39.617Z,95217.00
2019-04-01T23:31:10.301Z,95211.00
2019-04-01T23:33:41.036Z,95204.00
2019-04-01T23:36:12.326Z,95203.00
2019-04-01T23:38:43.412Z,95192.00
2019-04-01T23:41:13.832Z,95204.00
2019-04-01T23:43:44.250Z,95207.00
2019-04-01T23:46:14.720Z,95207.00
2019-04-01T23:48:45.135Z,95195.00
2019-04-01T23:51:17.657Z,95203.00
2019-04-01T23:53:48.110Z,95196.00
2019-04-01T23:56:18.577Z,95207.00
2019-04-01T23:58:49.004Z,95212.00
